sensor_id;sensor_type;location;lat;lon;timestamp;temperature;humidity
71514;DHT22;59335;46.652;21.272;2022-09-09T00:03:08;27.13;49.31
71514;DHT22;59335;46.652;21.272;2022-09-09T00:09:27;27.10;49.32
71514;DHT22;59335;46.652;21.272;2022-09-09T00:16:02;27.12;49.34
71514;DHT22;59335;46.652;21.272;2022-09-09T00:22:26;27.09;49.32
71514;DHT22;59335;46.652;21.272;2022-09-09T00:25:54;27.09;49.34
71514;DHT22;59335;46.652;21.272;2022-09-09T00:32:24;27.06;49.36
71514;DHT22;59335;46.652;21.272;2022-09-09T00:35:34;27.06;49.36
71514;DHT22;59335;46.652;21.272;2022-09-09T00:38:42;27.06;49.33
71514;DHT22;59335;46.652;21.272;2022-09-09T00:44:59;27.06;49.36
71514;DHT22;59335;46.652;21.272;2022-09-09T00:48:10;27.06;49.44
71514;DHT22;59335;46.652;21.272;2022-09-09T00:57:51;27.05;49.39
71514;DHT22;59335;46.652;21.272;2022-09-09T01:01:08;27.06;49.45
71514;DHT22;59335;46.652;21.272;2022-09-09T01:04:16;27.06;49.51
71514;DHT22;59335;46.652;21.272;2022-09-09T01:07:23;27.05;49.48
71514;DHT22;59335;46.652;21.272;2022-09-09T01:10:52;27.07;49.40
71514;DHT22;59335;46.652;21.272;2022-09-09T01:18:06;27.07;49.29
71514;DHT22;59335;46.652;21.272;2022-09-09T01:28:40;27.05;49.40
71514;DHT22;59335;46.652;21.272;2022-09-09T01:32:00;27.06;49.43
71514;DHT22;59335;46.652;21.272;2022-09-09T01:35:04;27.03;49.48
71514;DHT22;59335;46.652;21.272;2022-09-09T01:38:10;27.02;49.48
71514;DHT22;59335;46.652;21.272;2022-09-09T01:41:13;27.03;49.56
71514;DHT22;59335;46.652;21.272;2022-09-09T01:44:23;27.03;49.54
71514;DHT22;59335;46.652;21.272;2022-09-09T01:47:27;27.03;49.54
71514;DHT22;59335;46.652;21.272;2022-09-09T01:50:41;27.03;49.56
71514;DHT22;59335;46.652;21.272;2022-09-09T01:53:44;27.03;49.55
71514;DHT22;59335;46.652;21.272;2022-09-09T02:00:18;27.05;49.55
71514;DHT22;59335;46.652;21.272;2022-09-09T02:03:28;27.05;49.49
71514;DHT22;59335;46.652;21.272;2022-09-09T02:06:44;27.06;49.48
71514;DHT22;59335;46.652;21.272;2022-09-09T02:10:05;27.06;49.46
71514;DHT22;59335;46.652;21.272;2022-09-09T02:13:17;27.05;49.50
71514;DHT22;59335;46.652;21.272;2022-09-09T02:16:40;27.02;49.54
71514;DHT22;59335;46.652;21.272;2022-09-09T02:19:49;27.02;49.60
71514;DHT22;59335;46.652;21.272;2022-09-09T02:23:00;27.00;49.58
71514;DHT22;59335;46.652;21.272;2022-09-09T02:26:05;27.00;49.60
71514;DHT22;59335;46.652;21.272;2022-09-09T02:29:19;27.05;49.56
71514;DHT22;59335;46.652;21.272;2022-09-09T02:32:24;27.03;49.57
71514;DHT22;59335;46.652;21.272;2022-09-09T02:35:27;27.06;49.51
71514;DHT22;59335;46.652;21.272;2022-09-09T02:38:37;27.03;49.49
71514;DHT22;59335;46.652;21.272;2022-09-09T02:41:46;27.05;49.57
71514;DHT22;59335;46.652;21.272;2022-09-09T02:44:50;27.03;49.56
71514;DHT22;59335;46.652;21.272;2022-09-09T02:48:00;27.02;49.59
71514;DHT22;59335;46.652;21.272;2022-09-09T02:51:08;27.02;49.71
71514;DHT22;59335;46.652;21.272;2022-09-09T02:57:29;27.00;49.67
71514;DHT22;59335;46.652;21.272;2022-09-09T03:00:33;26.99;49.70
71514;DHT22;59335;46.652;21.272;2022-09-09T03:03:38;26.99;49.69
71514;DHT22;59335;46.652;21.272;2022-09-09T03:06:45;26.99;49.70
71514;DHT22;59335;46.652;21.272;2022-09-09T03:09:54;26.98;49.73
71514;DHT22;59335;46.652;21.272;2022-09-09T03:13:00;26.99;49.72
71514;DHT22;59335;46.652;21.272;2022-09-09T03:16:07;26.98;49.91
71514;DHT22;59335;46.652;21.272;2022-09-09T03:19:16;26.93;49.97
71514;DHT22;59335;46.652;21.272;2022-09-09T03:22:18;26.98;49.89
71514;DHT22;59335;46.652;21.272;2022-09-09T03:25:22;26.99;49.93
71514;DHT22;59335;46.652;21.272;2022-09-09T03:28:30;26.98;49.87
71514;DHT22;59335;46.652;21.272;2022-09-09T03:31:36;26.99;49.82
71514;DHT22;59335;46.652;21.272;2022-09-09T03:34:39;26.99;49.79
71514;DHT22;59335;46.652;21.272;2022-09-09T03:37:45;26.98;49.84
71514;DHT22;59335;46.652;21.272;2022-09-09T03:40:54;26.99;49.81
71514;DHT22;59335;46.652;21.272;2022-09-09T03:44:04;26.99;49.80
71514;DHT22;59335;46.652;21.272;2022-09-09T03:47:13;26.98;49.82
71514;DHT22;59335;46.652;21.272;2022-09-09T03:50:16;26.99;49.76
71514;DHT22;59335;46.652;21.272;2022-09-09T03:53:24;27.00;49.76
71514;DHT22;59335;46.652;21.272;2022-09-09T03:56:29;27.00;49.65
71514;DHT22;59335;46.652;21.272;2022-09-09T03:59:31;27.00;49.59
71514;DHT22;59335;46.652;21.272;2022-09-09T04:02:36;26.98;49.66
71514;DHT22;59335;46.652;21.272;2022-09-09T04:05:39;26.98;49.63
71514;DHT22;59335;46.652;21.272;2022-09-09T04:08:45;26.99;49.63
71514;DHT22;59335;46.652;21.272;2022-09-09T04:11:51;26.99;49.61
71514;DHT22;59335;46.652;21.272;2022-09-09T04:14:55;26.95;49.58
71514;DHT22;59335;46.652;21.272;2022-09-09T04:17:59;26.98;49.60
71514;DHT22;59335;46.652;21.272;2022-09-09T04:21:02;26.96;49.54
71514;DHT22;59335;46.652;21.272;2022-09-09T04:24:08;26.95;49.63
71514;DHT22;59335;46.652;21.272;2022-09-09T04:27:11;27.00;49.50
71514;DHT22;59335;46.652;21.272;2022-09-09T04:30:15;26.98;49.50
71514;DHT22;59335;46.652;21.272;2022-09-09T04:33:19;26.99;49.52
71514;DHT22;59335;46.652;21.272;2022-09-09T04:36:23;26.99;49.53
71514;DHT22;59335;46.652;21.272;2022-09-09T04:39:30;26.99;49.54
71514;DHT22;59335;46.652;21.272;2022-09-09T04:42:35;26.99;49.48
71514;DHT22;59335;46.652;21.272;2022-09-09T04:45:38;26.96;49.45
71514;DHT22;59335;46.652;21.272;2022-09-09T04:48:43;26.99;49.49
71514;DHT22;59335;46.652;21.272;2022-09-09T04:51:48;26.98;49.46
71514;DHT22;59335;46.652;21.272;2022-09-09T04:54:52;26.99;49.46
71514;DHT22;59335;46.652;21.272;2022-09-09T04:57:56;26.96;49.50
71514;DHT22;59335;46.652;21.272;2022-09-09T05:01:04;26.95;49.47
71514;DHT22;59335;46.652;21.272;2022-09-09T05:04:08;26.92;50.32
71514;DHT22;59335;46.652;21.272;2022-09-09T05:07:11;26.99;51.72
71514;DHT22;59335;46.652;21.272;2022-09-09T05:10:16;26.92;52.01
71514;DHT22;59335;46.652;21.272;2022-09-09T05:13:21;26.89;54.33
71514;DHT22;59335;46.652;21.272;2022-09-09T05:16:25;26.91;54.63
71514;DHT22;59335;46.652;21.272;2022-09-09T05:19:29;26.89;55.01
71514;DHT22;59335;46.652;21.272;2022-09-09T05:22:32;26.89;55.97
71514;DHT22;59335;46.652;21.272;2022-09-09T05:25:37;26.85;56.70
71514;DHT22;59335;46.652;21.272;2022-09-09T05:28:40;26.69;58.02
71514;DHT22;59335;46.652;21.272;2022-09-09T05:31:42;26.57;58.98
71514;DHT22;59335;46.652;21.272;2022-09-09T05:34:49;26.59;59.16
71514;DHT22;59335;46.652;21.272;2022-09-09T05:37:52;26.52;59.76
71514;DHT22;59335;46.652;21.272;2022-09-09T05:40:55;26.26;60.83
71514;DHT22;59335;46.652;21.272;2022-09-09T05:43:59;26.13;61.34
71514;DHT22;59335;46.652;21.272;2022-09-09T05:47:03;26.09;61.19
71514;DHT22;59335;46.652;21.272;2022-09-09T05:50:06;26.13;61.23
71514;DHT22;59335;46.652;21.272;2022-09-09T05:53:10;26.16;61.20
71514;DHT22;59335;46.652;21.272;2022-09-09T05:56:15;26.17;61.45
71514;DHT22;59335;46.652;21.272;2022-09-09T05:59:19;26.21;61.33
71514;DHT22;59335;46.652;21.272;2022-09-09T06:02:25;26.12;61.83
71514;DHT22;59335;46.652;21.272;2022-09-09T06:05:28;26.06;62.41
71514;DHT22;59335;46.652;21.272;2022-09-09T06:08:33;25.90;62.66
71514;DHT22;59335;46.652;21.272;2022-09-09T06:11:38;25.49;64.27
71514;DHT22;59335;46.652;21.272;2022-09-09T06:14:42;25.43;64.57
71514;DHT22;59335;46.652;21.272;2022-09-09T06:17:54;25.30;65.93
71514;DHT22;59335;46.652;21.272;2022-09-09T06:21:02;25.42;65.05
71514;DHT22;59335;46.652;21.272;2022-09-09T06:24:09;25.51;65.01
71514;DHT22;59335;46.652;21.272;2022-09-09T06:27:14;25.68;64.51
71514;DHT22;59335;46.652;21.272;2022-09-09T06:30:17;25.83;64.20
71514;DHT22;59335;46.652;21.272;2022-09-09T06:33:20;25.93;64.13
71514;DHT22;59335;46.652;21.272;2022-09-09T06:36:26;25.94;64.16
71514;DHT22;59335;46.652;21.272;2022-09-09T06:39:29;25.73;65.51
71514;DHT22;59335;46.652;21.272;2022-09-09T06:42:32;25.86;65.44
71514;DHT22;59335;46.652;21.272;2022-09-09T06:46:09;25.99;64.86
71514;DHT22;59335;46.652;21.272;2022-09-09T06:49:11;26.21;63.85
71514;DHT22;59335;46.652;21.272;2022-09-09T06:52:15;26.31;63.94
71514;DHT22;59335;46.652;21.272;2022-09-09T06:55:21;26.38;64.04
71514;DHT22;59335;46.652;21.272;2022-09-09T06:58:24;26.45;63.71
71514;DHT22;59335;46.652;21.272;2022-09-09T07:01:31;26.38;63.09
71514;DHT22;59335;46.652;21.272;2022-09-09T07:04:37;26.37;63.12
71514;DHT22;59335;46.652;21.272;2022-09-09T07:07:40;26.44;63.14
71514;DHT22;59335;46.652;21.272;2022-09-09T07:10:46;26.49;63.11
71514;DHT22;59335;46.652;21.272;2022-09-09T07:13:53;26.52;63.30
71514;DHT22;59335;46.652;21.272;2022-09-09T07:16:56;26.54;63.42
71514;DHT22;59335;46.652;21.272;2022-09-09T07:20:04;26.54;62.96
71514;DHT22;59335;46.652;21.272;2022-09-09T07:23:09;26.54;62.87
71514;DHT22;59335;46.652;21.272;2022-09-09T07:26:15;26.58;62.79
71514;DHT22;59335;46.652;21.272;2022-09-09T07:29:19;26.62;63.11
71514;DHT22;59335;46.652;21.272;2022-09-09T07:32:24;26.71;62.73
71514;DHT22;59335;46.652;21.272;2022-09-09T07:35:28;26.86;62.18
71514;DHT22;59335;46.652;21.272;2022-09-09T07:38:31;26.88;61.92
71514;DHT22;59335;46.652;21.272;2022-09-09T07:44:44;27.02;61.49
71514;DHT22;59335;46.652;21.272;2022-09-09T07:47:51;27.12;61.61
71514;DHT22;59335;46.652;21.272;2022-09-09T07:51:11;27.17;61.23
71514;DHT22;59335;46.652;21.272;2022-09-09T07:54:16;27.16;61.95
71514;DHT22;59335;46.652;21.272;2022-09-09T07:57:19;27.17;61.71
71514;DHT22;59335;46.652;21.272;2022-09-09T08:00:25;27.16;61.34
71514;DHT22;59335;46.652;21.272;2022-09-09T08:03:34;27.19;61.47
71514;DHT22;59335;46.652;21.272;2022-09-09T08:06:47;27.16;61.46
71514;DHT22;59335;46.652;21.272;2022-09-09T08:09:51;27.14;61.14
71514;DHT22;59335;46.652;21.272;2022-09-09T08:12:58;27.13;61.07
71514;DHT22;59335;46.652;21.272;2022-09-09T08:16:25;27.06;61.20
71514;DHT22;59335;46.652;21.272;2022-09-09T08:19:28;27.06;60.98
71514;DHT22;59335;46.652;21.272;2022-09-09T08:22:37;27.10;61.09
71514;DHT22;59335;46.652;21.272;2022-09-09T08:25:40;27.10;60.63
71514;DHT22;59335;46.652;21.272;2022-09-09T08:28:44;27.16;60.48
71514;DHT22;59335;46.652;21.272;2022-09-09T08:31:56;27.20;60.42
71514;DHT22;59335;46.652;21.272;2022-09-09T08:35:01;27.22;60.20
71514;DHT22;59335;46.652;21.272;2022-09-09T08:38:09;27.26;60.07
71514;DHT22;59335;46.652;21.272;2022-09-09T08:45:09;27.29;59.76
71514;DHT22;59335;46.652;21.272;2022-09-09T08:51:24;27.24;60.41
71514;DHT22;59335;46.652;21.272;2022-09-09T08:54:33;27.26;60.23
71514;DHT22;59335;46.652;21.272;2022-09-09T08:57:56;27.24;60.24
71514;DHT22;59335;46.652;21.272;2022-09-09T09:08:03;27.20;60.54
71514;DHT22;59335;46.652;21.272;2022-09-09T09:11:09;27.10;60.51
71514;DHT22;59335;46.652;21.272;2022-09-09T09:14:22;27.10;60.42
71514;DHT22;59335;46.652;21.272;2022-09-09T09:17:37;27.06;60.17
71514;DHT22;59335;46.652;21.272;2022-09-09T09:20:54;27.14;60.10
71514;DHT22;59335;46.652;21.272;2022-09-09T09:24:00;27.17;59.84
71514;DHT22;59335;46.652;21.272;2022-09-09T09:27:36;27.24;59.41
71514;DHT22;59335;46.652;21.272;2022-09-09T09:33:57;27.27;59.11
71514;DHT22;59335;46.652;21.272;2022-09-09T09:37:15;27.32;59.08
71514;DHT22;59335;46.652;21.272;2022-09-09T09:40:22;27.34;58.79
71514;DHT22;59335;46.652;21.272;2022-09-09T09:43:31;27.33;58.75
71514;DHT22;59335;46.652;21.272;2022-09-09T09:47:15;27.29;58.90
71514;DHT22;59335;46.652;21.272;2022-09-09T09:50:29;27.32;58.70
71514;DHT22;59335;46.652;21.272;2022-09-09T09:53:36;27.34;59.09
71514;DHT22;59335;46.652;21.272;2022-09-09T09:56:45;27.32;59.43
71514;DHT22;59335;46.652;21.272;2022-09-09T09:59:48;27.37;59.33
71514;DHT22;59335;46.652;21.272;2022-09-09T10:02:59;27.40;59.12
71514;DHT22;59335;46.652;21.272;2022-09-09T10:06:06;27.40;59.39
71514;DHT22;59335;46.652;21.272;2022-09-09T10:09:28;27.37;60.27
71514;DHT22;59335;46.652;21.272;2022-09-09T10:15:59;27.37;59.27
71514;DHT22;59335;46.652;21.272;2022-09-09T10:22:33;27.39;59.02
71514;DHT22;59335;46.652;21.272;2022-09-09T10:32:27;27.41;59.07
71514;DHT22;59335;46.652;21.272;2022-09-09T10:42:46;27.37;58.38
71514;DHT22;59335;46.652;21.272;2022-09-09T10:49:16;27.41;58.84
71514;DHT22;59335;46.652;21.272;2022-09-09T10:55:55;27.44;59.31
71514;DHT22;59335;46.652;21.272;2022-09-09T10:59:12;27.46;58.80
71514;DHT22;59335;46.652;21.272;2022-09-09T11:02:30;27.46;58.86
71514;DHT22;59335;46.652;21.272;2022-09-09T11:05:42;27.43;58.86
71514;DHT22;59335;46.652;21.272;2022-09-09T11:08:48;27.40;58.83
71514;DHT22;59335;46.652;21.272;2022-09-09T11:12:00;27.41;58.83
71514;DHT22;59335;46.652;21.272;2022-09-09T11:15:14;27.37;58.68
71514;DHT22;59335;46.652;21.272;2022-09-09T11:18:20;27.37;58.19
71514;DHT22;59335;46.652;21.272;2022-09-09T11:21:37;27.32;58.18
71514;DHT22;59335;46.652;21.272;2022-09-09T11:24:47;27.26;58.02
71514;DHT22;59335;46.652;21.272;2022-09-09T11:28:38;27.27;57.91
71514;DHT22;59335;46.652;21.272;2022-09-09T11:38:45;27.36;57.13
71514;DHT22;59335;46.652;21.272;2022-09-09T11:41:50;27.34;57.03
71514;DHT22;59335;46.652;21.272;2022-09-09T11:44:52;27.30;57.35
71514;DHT22;59335;46.652;21.272;2022-09-09T11:48:01;27.33;57.10
71514;DHT22;59335;46.652;21.272;2022-09-09T11:51:09;27.30;57.22
71514;DHT22;59335;46.652;21.272;2022-09-09T11:54:32;27.36;56.97
71514;DHT22;59335;46.652;21.272;2022-09-09T11:57:36;27.37;56.86
71514;DHT22;59335;46.652;21.272;2022-09-09T12:00:41;27.34;56.86
71514;DHT22;59335;46.652;21.272;2022-09-09T12:03:52;27.37;56.92
71514;DHT22;59335;46.652;21.272;2022-09-09T12:13:21;27.24;56.19
71514;DHT22;59335;46.652;21.272;2022-09-09T12:16:35;27.30;56.34
71514;DHT22;59335;46.652;21.272;2022-09-09T12:19:40;27.30;56.48
71514;DHT22;59335;46.652;21.272;2022-09-09T12:26:32;27.26;56.34
71514;DHT22;59335;46.652;21.272;2022-09-09T12:33:00;27.26;56.19
71514;DHT22;59335;46.652;21.272;2022-09-09T12:36:05;27.30;56.05
71514;DHT22;59335;46.652;21.272;2022-09-09T12:39:43;27.29;56.03
71514;DHT22;59335;46.652;21.272;2022-09-09T12:42:48;27.32;56.02
71514;DHT22;59335;46.652;21.272;2022-09-09T12:46:03;27.32;56.09
71514;DHT22;59335;46.652;21.272;2022-09-09T12:52:35;27.32;56.10
71514;DHT22;59335;46.652;21.272;2022-09-09T12:55:50;27.34;55.97
71514;DHT22;59335;46.652;21.272;2022-09-09T12:58:54;27.37;55.79
71514;DHT22;59335;46.652;21.272;2022-09-09T13:01:59;27.36;56.42
71514;DHT22;59335;46.652;21.272;2022-09-09T13:05:24;27.33;55.91
71514;DHT22;59335;46.652;21.272;2022-09-09T13:08:27;27.34;56.04
71514;DHT22;59335;46.652;21.272;2022-09-09T13:11:47;27.37;55.67
71514;DHT22;59335;46.652;21.272;2022-09-09T13:14:54;27.37;55.54
71514;DHT22;59335;46.652;21.272;2022-09-09T13:18:01;27.34;55.35
71514;DHT22;59335;46.652;21.272;2022-09-09T13:21:06;27.39;54.96
71514;DHT22;59335;46.652;21.272;2022-09-09T13:27:34;27.34;54.42
71514;DHT22;59335;46.652;21.272;2022-09-09T13:30:41;27.37;54.38
71514;DHT22;59335;46.652;21.272;2022-09-09T13:33:45;27.34;54.00
71514;DHT22;59335;46.652;21.272;2022-09-09T13:36:51;27.36;54.06
71514;DHT22;59335;46.652;21.272;2022-09-09T13:40:00;27.36;54.07
71514;DHT22;59335;46.652;21.272;2022-09-09T13:43:04;27.34;54.06
71514;DHT22;59335;46.652;21.272;2022-09-09T13:49:42;27.34;53.84
71514;DHT22;59335;46.652;21.272;2022-09-09T13:52:45;27.34;53.51
71514;DHT22;59335;46.652;21.272;2022-09-09T13:55:50;27.33;53.43
71514;DHT22;59335;46.652;21.272;2022-09-09T13:58:54;27.36;53.35
71514;DHT22;59335;46.652;21.272;2022-09-09T14:01:58;27.34;53.26
71514;DHT22;59335;46.652;21.272;2022-09-09T14:05:00;27.34;53.14
71514;DHT22;59335;46.652;21.272;2022-09-09T14:08:04;27.34;52.99
71514;DHT22;59335;46.652;21.272;2022-09-09T14:11:11;27.32;52.75
71514;DHT22;59335;46.652;21.272;2022-09-09T14:14:14;27.29;52.62
71514;DHT22;59335;46.652;21.272;2022-09-09T14:17:17;27.32;52.63
71514;DHT22;59335;46.652;21.272;2022-09-09T14:20:20;27.34;52.48
71514;DHT22;59335;46.652;21.272;2022-09-09T14:23:23;27.36;52.56
71514;DHT22;59335;46.652;21.272;2022-09-09T14:26:26;27.33;52.44
71514;DHT22;59335;46.652;21.272;2022-09-09T14:29:31;27.32;52.37
71514;DHT22;59335;46.652;21.272;2022-09-09T14:32:35;27.32;52.30
71514;DHT22;59335;46.652;21.272;2022-09-09T14:35:38;27.34;52.34
71514;DHT22;59335;46.652;21.272;2022-09-09T14:38:43;27.29;51.93
71514;DHT22;59335;46.652;21.272;2022-09-09T14:41:46;27.32;51.66
71514;DHT22;59335;46.652;21.272;2022-09-09T14:44:48;27.30;51.65
71514;DHT22;59335;46.652;21.272;2022-09-09T14:47:51;27.30;51.47
71514;DHT22;59335;46.652;21.272;2022-09-09T14:50:54;27.30;51.38
71514;DHT22;59335;46.652;21.272;2022-09-09T14:53:58;27.32;51.22
71514;DHT22;59335;46.652;21.272;2022-09-09T14:57:01;27.30;51.10
71514;DHT22;59335;46.652;21.272;2022-09-09T15:00:05;27.30;50.87
71514;DHT22;59335;46.652;21.272;2022-09-09T15:03:08;27.30;50.90
71514;DHT22;59335;46.652;21.272;2022-09-09T15:06:14;27.26;50.94
71514;DHT22;59335;46.652;21.272;2022-09-09T15:09:16;27.27;51.21
71514;DHT22;59335;46.652;21.272;2022-09-09T15:12:19;27.33;51.83
71514;DHT22;59335;46.652;21.272;2022-09-09T15:15:22;27.33;52.24
71514;DHT22;59335;46.652;21.272;2022-09-09T15:18:25;27.36;54.10
71514;DHT22;59335;46.652;21.272;2022-09-09T15:21:30;27.36;53.38
71514;DHT22;59335;46.652;21.272;2022-09-09T15:24:34;27.34;54.25
71514;DHT22;59335;46.652;21.272;2022-09-09T15:27:37;27.33;55.31
71514;DHT22;59335;46.652;21.272;2022-09-09T15:30:41;27.29;55.25
71514;DHT22;59335;46.652;21.272;2022-09-09T15:34:10;27.26;55.75
71514;DHT22;59335;46.652;21.272;2022-09-09T15:37:13;27.27;56.29
71514;DHT22;59335;46.652;21.272;2022-09-09T15:40:16;27.24;57.29
71514;DHT22;59335;46.652;21.272;2022-09-09T15:43:18;27.23;58.01
71514;DHT22;59335;46.652;21.272;2022-09-09T15:49:29;27.24;59.53
71514;DHT22;59335;46.652;21.272;2022-09-09T15:52:32;27.20;60.10
71514;DHT22;59335;46.652;21.272;2022-09-09T15:55:35;27.20;62.08
71514;DHT22;59335;46.652;21.272;2022-09-09T15:58:38;27.14;62.13
71514;DHT22;59335;46.652;21.272;2022-09-09T16:01:41;27.16;62.11
71514;DHT22;59335;46.652;21.272;2022-09-09T16:04:44;27.19;61.49
71514;DHT22;59335;46.652;21.272;2022-09-09T16:07:47;27.17;60.76
71514;DHT22;59335;46.652;21.272;2022-09-09T16:10:50;27.17;61.60
71514;DHT22;59335;46.652;21.272;2022-09-09T16:13:54;27.16;62.27
71514;DHT22;59335;46.652;21.272;2022-09-09T16:16:57;27.17;61.60
71514;DHT22;59335;46.652;21.272;2022-09-09T16:19:59;27.16;60.51
71514;DHT22;59335;46.652;21.272;2022-09-09T16:23:02;27.17;60.13
71514;DHT22;59335;46.652;21.272;2022-09-09T16:26:05;27.19;60.54
71514;DHT22;59335;46.652;21.272;2022-09-09T16:29:07;27.19;59.84
71514;DHT22;59335;46.652;21.272;2022-09-09T16:32:11;27.16;59.24
71514;DHT22;59335;46.652;21.272;2022-09-09T16:35:14;27.19;59.05
71514;DHT22;59335;46.652;21.272;2022-09-09T16:38:16;27.16;58.56
71514;DHT22;59335;46.652;21.272;2022-09-09T16:41:19;27.17;58.47
71514;DHT22;59335;46.652;21.272;2022-09-09T16:44:22;27.17;58.32
71514;DHT22;59335;46.652;21.272;2022-09-09T16:47:24;27.19;58.14
71514;DHT22;59335;46.652;21.272;2022-09-09T16:50:27;27.17;58.00
71514;DHT22;59335;46.652;21.272;2022-09-09T16:53:30;27.17;57.86
71514;DHT22;59335;46.652;21.272;2022-09-09T16:56:34;27.23;57.66
71514;DHT22;59335;46.652;21.272;2022-09-09T16:59:39;27.20;57.64
71514;DHT22;59335;46.652;21.272;2022-09-09T17:02:43;27.20;57.64
71514;DHT22;59335;46.652;21.272;2022-09-09T17:05:47;27.22;57.53
71514;DHT22;59335;46.652;21.272;2022-09-09T17:09:00;27.19;57.44
71514;DHT22;59335;46.652;21.272;2022-09-09T17:12:04;27.20;57.47
71514;DHT22;59335;46.652;21.272;2022-09-09T17:15:07;27.20;57.38
71514;DHT22;59335;46.652;21.272;2022-09-09T17:18:10;27.19;57.31
71514;DHT22;59335;46.652;21.272;2022-09-09T17:21:16;27.20;57.20
71514;DHT22;59335;46.652;21.272;2022-09-09T17:24:20;27.19;57.15
71514;DHT22;59335;46.652;21.272;2022-09-09T17:27:24;27.20;56.98
71514;DHT22;59335;46.652;21.272;2022-09-09T17:30:26;27.19;56.90
71514;DHT22;59335;46.652;21.272;2022-09-09T17:33:30;27.20;56.58
71514;DHT22;59335;46.652;21.272;2022-09-09T17:36:33;27.19;56.42
71514;DHT22;59335;46.652;21.272;2022-09-09T17:39:37;27.17;56.32
71514;DHT22;59335;46.652;21.272;2022-09-09T17:42:39;27.17;56.51
71514;DHT22;59335;46.652;21.272;2022-09-09T17:45:43;27.17;56.46
71514;DHT22;59335;46.652;21.272;2022-09-09T17:48:50;27.20;56.46
71514;DHT22;59335;46.652;21.272;2022-09-09T17:51:53;27.20;56.34
71514;DHT22;59335;46.652;21.272;2022-09-09T17:54:57;27.19;56.33
71514;DHT22;59335;46.652;21.272;2022-09-09T17:58:00;27.20;56.32
71514;DHT22;59335;46.652;21.272;2022-09-09T18:01:08;27.17;56.35
71514;DHT22;59335;46.652;21.272;2022-09-09T18:04:14;27.19;56.35
71514;DHT22;59335;46.652;21.272;2022-09-09T18:07:16;27.17;56.31
71514;DHT22;59335;46.652;21.272;2022-09-09T18:10:19;27.17;56.25
71514;DHT22;59335;46.652;21.272;2022-09-09T18:13:21;27.20;56.19
71514;DHT22;59335;46.652;21.272;2022-09-09T18:16:25;27.17;56.18
71514;DHT22;59335;46.652;21.272;2022-09-09T18:19:30;27.17;56.19
71514;DHT22;59335;46.652;21.272;2022-09-09T18:22:34;27.17;56.17
71514;DHT22;59335;46.652;21.272;2022-09-09T18:25:40;27.17;56.15
71514;DHT22;59335;46.652;21.272;2022-09-09T18:28:47;27.19;56.17
71514;DHT22;59335;46.652;21.272;2022-09-09T18:31:52;27.16;56.15
71514;DHT22;59335;46.652;21.272;2022-09-09T18:34:56;27.16;56.13
71514;DHT22;59335;46.652;21.272;2022-09-09T18:38:00;27.14;56.10
71514;DHT22;59335;46.652;21.272;2022-09-09T18:41:20;27.16;56.08
71514;DHT22;59335;46.652;21.272;2022-09-09T18:44:24;27.14;56.03
71514;DHT22;59335;46.652;21.272;2022-09-09T18:47:28;27.17;55.98
71514;DHT22;59335;46.652;21.272;2022-09-09T18:50:32;27.14;55.97
71514;DHT22;59335;46.652;21.272;2022-09-09T18:53:36;27.14;55.99
71514;DHT22;59335;46.652;21.272;2022-09-09T18:56:39;27.14;55.99
71514;DHT22;59335;46.652;21.272;2022-09-09T18:59:43;27.17;55.97
71514;DHT22;59335;46.652;21.272;2022-09-09T19:02:48;27.13;55.97
71514;DHT22;59335;46.652;21.272;2022-09-09T19:06:04;27.16;55.94
71514;DHT22;59335;46.652;21.272;2022-09-09T19:09:12;27.14;55.96
71514;DHT22;59335;46.652;21.272;2022-09-09T19:12:16;27.13;55.93
71514;DHT22;59335;46.652;21.272;2022-09-09T19:15:19;27.13;55.89
71514;DHT22;59335;46.652;21.272;2022-09-09T19:18:22;27.10;55.90
71514;DHT22;59335;46.652;21.272;2022-09-09T19:21:31;27.13;55.89
71514;DHT22;59335;46.652;21.272;2022-09-09T19:24:35;27.14;55.88
71514;DHT22;59335;46.652;21.272;2022-09-09T19:27:38;27.14;55.80
71514;DHT22;59335;46.652;21.272;2022-09-09T19:30:41;27.14;55.79
71514;DHT22;59335;46.652;21.272;2022-09-09T19:33:51;27.13;55.79
71514;DHT22;59335;46.652;21.272;2022-09-09T19:36:54;27.10;55.80
71514;DHT22;59335;46.652;21.272;2022-09-09T19:39:57;27.10;55.84
71514;DHT22;59335;46.652;21.272;2022-09-09T19:43:00;27.13;55.76
71514;DHT22;59335;46.652;21.272;2022-09-09T19:46:04;27.12;55.70
71514;DHT22;59335;46.652;21.272;2022-09-09T19:49:08;27.10;55.72
71514;DHT22;59335;46.652;21.272;2022-09-09T19:52:11;27.13;55.70
71514;DHT22;59335;46.652;21.272;2022-09-09T19:55:14;27.10;55.68
71514;DHT22;59335;46.652;21.272;2022-09-09T19:58:16;27.07;55.66
71514;DHT22;59335;46.652;21.272;2022-09-09T20:01:31;27.13;55.64
71514;DHT22;59335;46.652;21.272;2022-09-09T20:04:41;27.10;55.63
71514;DHT22;59335;46.652;21.272;2022-09-09T20:07:44;27.10;55.68
71514;DHT22;59335;46.652;21.272;2022-09-09T20:10:52;27.13;55.64
71514;DHT22;59335;46.652;21.272;2022-09-09T20:13:55;27.10;55.64
71514;DHT22;59335;46.652;21.272;2022-09-09T20:16:58;27.10;55.60
71514;DHT22;59335;46.652;21.272;2022-09-09T20:20:01;27.07;55.62
71514;DHT22;59335;46.652;21.272;2022-09-09T20:23:06;27.07;55.56
71514;DHT22;59335;46.652;21.272;2022-09-09T20:26:13;27.09;55.57
71514;DHT22;59335;46.652;21.272;2022-09-09T20:29:18;27.09;55.55
71514;DHT22;59335;46.652;21.272;2022-09-09T20:32:21;27.12;55.56
71514;DHT22;59335;46.652;21.272;2022-09-09T20:35:24;27.10;55.55
71514;DHT22;59335;46.652;21.272;2022-09-09T20:38:26;27.10;55.51
71514;DHT22;59335;46.652;21.272;2022-09-09T20:41:31;27.09;55.50
71514;DHT22;59335;46.652;21.272;2022-09-09T20:44:33;27.10;55.45
71514;DHT22;59335;46.652;21.272;2022-09-09T20:47:36;27.09;55.48
71514;DHT22;59335;46.652;21.272;2022-09-09T20:50:38;27.10;55.45
71514;DHT22;59335;46.652;21.272;2022-09-09T20:53:42;27.07;55.42
71514;DHT22;59335;46.652;21.272;2022-09-09T20:56:45;27.09;55.42
71514;DHT22;59335;46.652;21.272;2022-09-09T20:59:47;27.06;55.49
71514;DHT22;59335;46.652;21.272;2022-09-09T21:02:52;27.07;55.38
71514;DHT22;59335;46.652;21.272;2022-09-09T21:05:54;27.07;55.42
71514;DHT22;59335;46.652;21.272;2022-09-09T21:08:59;27.07;55.36
71514;DHT22;59335;46.652;21.272;2022-09-09T21:12:02;27.09;55.38
71514;DHT22;59335;46.652;21.272;2022-09-09T21:15:05;27.06;55.39
71514;DHT22;59335;46.652;21.272;2022-09-09T21:18:08;27.07;55.30
71514;DHT22;59335;46.652;21.272;2022-09-09T21:21:12;27.05;55.35
71514;DHT22;59335;46.652;21.272;2022-09-09T21:24:16;27.07;55.29